sensor_id;sensor_type;location;lat;lon;timestamp;temperature;humidity
10911;DHT22;5508;49.150;11.030;2022-07-29T00:02:16;17.90;60.90
10911;DHT22;5508;49.150;11.030;2022-07-29T00:05:16;17.90;59.90
10911;DHT22;5508;49.150;11.030;2022-07-29T00:08:17;18.10;59.90
10911;DHT22;5508;49.150;11.030;2022-07-29T00:11:17;18.20;59.30
10911;DHT22;5508;49.150;11.030;2022-07-29T00:14:18;18.40;59.70
10911;DHT22;5508;49.150;11.030;2022-07-29T00:17:19;18.40;60.70
10911;DHT22;5508;49.150;11.030;2022-07-29T00:20:19;18.40;62.50
10911;DHT22;5508;49.150;11.030;2022-07-29T00:23:20;18.40;63.50
10911;DHT22;5508;49.150;11.030;2022-07-29T00:26:20;18.40;63.70
10911;DHT22;5508;49.150;11.030;2022-07-29T00:29:21;18.40;63.50
10911;DHT22;5508;49.150;11.030;2022-07-29T00:32:22;18.40;65.50
10911;DHT22;5508;49.150;11.030;2022-07-29T00:35:23;18.50;63.00
10911;DHT22;5508;49.150;11.030;2022-07-29T00:38:42;18.50;64.10
10911;DHT22;5508;49.150;11.030;2022-07-29T00:41:45;18.50;63.10
10911;DHT22;5508;49.150;11.030;2022-07-29T00:44:46;18.50;66.40
10911;DHT22;5508;49.150;11.030;2022-07-29T00:47:46;18.50;63.30
10911;DHT22;5508;49.150;11.030;2022-07-29T00:50:49;18.50;62.60
10911;DHT22;5508;49.150;11.030;2022-07-29T00:53:49;18.60;62.30
10911;DHT22;5508;49.150;11.030;2022-07-29T00:56:51;18.70;62.80
10911;DHT22;5508;49.150;11.030;2022-07-29T00:59:51;18.80;62.80
10911;DHT22;5508;49.150;11.030;2022-07-29T01:02:52;18.80;63.10
10911;DHT22;5508;49.150;11.030;2022-07-29T01:05:53;18.90;62.80
10911;DHT22;5508;49.150;11.030;2022-07-29T01:08:54;18.90;63.30
10911;DHT22;5508;49.150;11.030;2022-07-29T01:11:55;18.80;64.40
10911;DHT22;5508;49.150;11.030;2022-07-29T01:14:56;18.80;63.40
10911;DHT22;5508;49.150;11.030;2022-07-29T01:18:03;18.70;64.70
10911;DHT22;5508;49.150;11.030;2022-07-29T01:21:33;18.60;65.90
10911;DHT22;5508;49.150;11.030;2022-07-29T01:28:08;18.40;67.10
10911;DHT22;5508;49.150;11.030;2022-07-29T01:31:43;18.30;66.70
10911;DHT22;5508;49.150;11.030;2022-07-29T01:34:53;18.20;66.70
10911;DHT22;5508;49.150;11.030;2022-07-29T01:38:00;18.20;67.00
10911;DHT22;5508;49.150;11.030;2022-07-29T01:41:06;18.10;67.00
10911;DHT22;5508;49.150;11.030;2022-07-29T01:44:12;18.10;67.50
10911;DHT22;5508;49.150;11.030;2022-07-29T01:47:20;18.10;66.70
10911;DHT22;5508;49.150;11.030;2022-07-29T01:50:28;18.00;66.90
10911;DHT22;5508;49.150;11.030;2022-07-29T01:53:53;18.00;66.40
10911;DHT22;5508;49.150;11.030;2022-07-29T01:56:56;18.00;66.00
10911;DHT22;5508;49.150;11.030;2022-07-29T01:59:59;17.90;65.60
10911;DHT22;5508;49.150;11.030;2022-07-29T02:03:05;18.00;67.20
10911;DHT22;5508;49.150;11.030;2022-07-29T02:06:09;18.00;66.80
10911;DHT22;5508;49.150;11.030;2022-07-29T02:09:13;17.90;67.20
10911;DHT22;5508;49.150;11.030;2022-07-29T02:12:16;17.90;67.00
10911;DHT22;5508;49.150;11.030;2022-07-29T02:15:18;17.90;68.30
10911;DHT22;5508;49.150;11.030;2022-07-29T02:18:22;17.70;70.00
10911;DHT22;5508;49.150;11.030;2022-07-29T02:21:25;17.70;70.20
10911;DHT22;5508;49.150;11.030;2022-07-29T02:24:26;17.60;69.90
10911;DHT22;5508;49.150;11.030;2022-07-29T02:27:28;17.60;70.20
10911;DHT22;5508;49.150;11.030;2022-07-29T02:30:30;17.50;70.30
10911;DHT22;5508;49.150;11.030;2022-07-29T02:33:31;17.50;70.00
10911;DHT22;5508;49.150;11.030;2022-07-29T02:36:34;17.40;71.40
10911;DHT22;5508;49.150;11.030;2022-07-29T02:39:35;17.40;71.80
10911;DHT22;5508;49.150;11.030;2022-07-29T02:42:38;17.40;71.30
10911;DHT22;5508;49.150;11.030;2022-07-29T02:45:41;17.40;71.30
10911;DHT22;5508;49.150;11.030;2022-07-29T02:48:51;17.40;72.10
10911;DHT22;5508;49.150;11.030;2022-07-29T02:52:00;17.30;72.00
10911;DHT22;5508;49.150;11.030;2022-07-29T02:58:27;17.20;73.20
10911;DHT22;5508;49.150;11.030;2022-07-29T03:01:31;17.20;72.20
10911;DHT22;5508;49.150;11.030;2022-07-29T03:04:32;17.20;71.40
10911;DHT22;5508;49.150;11.030;2022-07-29T03:07:35;17.20;71.00
10911;DHT22;5508;49.150;11.030;2022-07-29T03:10:39;17.10;70.70
10911;DHT22;5508;49.150;11.030;2022-07-29T03:13:40;17.10;70.20
10911;DHT22;5508;49.150;11.030;2022-07-29T03:16:41;17.20;70.20
10911;DHT22;5508;49.150;11.030;2022-07-29T03:19:42;17.20;70.30
10911;DHT22;5508;49.150;11.030;2022-07-29T03:22:44;17.20;72.60
10911;DHT22;5508;49.150;11.030;2022-07-29T03:25:47;17.10;72.50
10911;DHT22;5508;49.150;11.030;2022-07-29T03:28:47;17.20;73.50
10911;DHT22;5508;49.150;11.030;2022-07-29T03:31:48;17.10;73.00
10911;DHT22;5508;49.150;11.030;2022-07-29T03:34:49;17.00;73.00
10911;DHT22;5508;49.150;11.030;2022-07-29T03:37:49;16.80;73.50
10911;DHT22;5508;49.150;11.030;2022-07-29T03:40:54;16.80;74.30
10911;DHT22;5508;49.150;11.030;2022-07-29T03:43:57;16.70;74.50
10911;DHT22;5508;49.150;11.030;2022-07-29T03:47:00;16.70;74.30
10911;DHT22;5508;49.150;11.030;2022-07-29T03:50:07;16.70;74.70
10911;DHT22;5508;49.150;11.030;2022-07-29T03:53:08;16.70;75.70
10911;DHT22;5508;49.150;11.030;2022-07-29T03:56:10;16.70;76.60
10911;DHT22;5508;49.150;11.030;2022-07-29T03:59:13;16.60;77.50
10911;DHT22;5508;49.150;11.030;2022-07-29T04:02:14;16.60;77.80
10911;DHT22;5508;49.150;11.030;2022-07-29T04:05:16;16.40;79.40
10911;DHT22;5508;49.150;11.030;2022-07-29T04:08:16;16.30;78.70
10911;DHT22;5508;49.150;11.030;2022-07-29T04:11:17;16.20;78.20
10911;DHT22;5508;49.150;11.030;2022-07-29T04:14:18;16.20;78.10
10911;DHT22;5508;49.150;11.030;2022-07-29T04:17:18;16.10;77.80
10911;DHT22;5508;49.150;11.030;2022-07-29T04:20:19;16.10;78.00
10911;DHT22;5508;49.150;11.030;2022-07-29T04:23:20;16.10;78.70
10911;DHT22;5508;49.150;11.030;2022-07-29T04:26:21;16.20;80.20
10911;DHT22;5508;49.150;11.030;2022-07-29T04:29:21;16.10;80.60
10911;DHT22;5508;49.150;11.030;2022-07-29T04:32:22;16.00;81.80
10911;DHT22;5508;49.150;11.030;2022-07-29T04:35:23;15.90;81.80
10911;DHT22;5508;49.150;11.030;2022-07-29T04:38:23;15.80;83.30
10911;DHT22;5508;49.150;11.030;2022-07-29T04:41:24;15.80;82.80
10911;DHT22;5508;49.150;11.030;2022-07-29T04:44:25;15.90;82.80
10911;DHT22;5508;49.150;11.030;2022-07-29T04:47:26;15.90;83.00
10911;DHT22;5508;49.150;11.030;2022-07-29T04:50:26;15.90;83.10
10911;DHT22;5508;49.150;11.030;2022-07-29T04:53:27;16.00;82.80
10911;DHT22;5508;49.150;11.030;2022-07-29T04:56:28;15.90;82.40
10911;DHT22;5508;49.150;11.030;2022-07-29T04:59:28;16.00;83.20
10911;DHT22;5508;49.150;11.030;2022-07-29T05:02:29;16.00;82.50
10911;DHT22;5508;49.150;11.030;2022-07-29T05:05:29;16.00;82.60
10911;DHT22;5508;49.150;11.030;2022-07-29T05:08:30;16.00;83.40
10911;DHT22;5508;49.150;11.030;2022-07-29T05:11:30;16.00;82.90
10911;DHT22;5508;49.150;11.030;2022-07-29T05:14:31;16.30;82.50
10911;DHT22;5508;49.150;11.030;2022-07-29T05:17:32;16.60;80.00
10911;DHT22;5508;49.150;11.030;2022-07-29T05:20:32;16.90;78.40
10911;DHT22;5508;49.150;11.030;2022-07-29T05:23:34;17.10;77.40
10911;DHT22;5508;49.150;11.030;2022-07-29T05:26:35;17.20;76.70
10911;DHT22;5508;49.150;11.030;2022-07-29T05:29:35;17.40;76.10
10911;DHT22;5508;49.150;11.030;2022-07-29T05:32:36;17.60;75.30
10911;DHT22;5508;49.150;11.030;2022-07-29T05:35:37;17.70;74.20
10911;DHT22;5508;49.150;11.030;2022-07-29T05:38:38;17.80;75.30
10911;DHT22;5508;49.150;11.030;2022-07-29T05:41:38;17.90;75.60
10911;DHT22;5508;49.150;11.030;2022-07-29T05:44:39;18.10;75.50
10911;DHT22;5508;49.150;11.030;2022-07-29T05:47:40;18.30;73.70
10911;DHT22;5508;49.150;11.030;2022-07-29T05:50:40;18.60;72.20
10911;DHT22;5508;49.150;11.030;2022-07-29T05:53:41;18.90;71.40
10911;DHT22;5508;49.150;11.030;2022-07-29T05:56:41;19.20;70.00
10911;DHT22;5508;49.150;11.030;2022-07-29T05:59:42;19.30;70.10
10911;DHT22;5508;49.150;11.030;2022-07-29T06:02:43;19.60;68.30
10911;DHT22;5508;49.150;11.030;2022-07-29T06:05:43;19.70;68.70
10911;DHT22;5508;49.150;11.030;2022-07-29T06:08:44;20.00;66.80
10911;DHT22;5508;49.150;11.030;2022-07-29T06:11:44;19.90;67.10
10911;DHT22;5508;49.150;11.030;2022-07-29T06:14:45;20.20;65.40
10911;DHT22;5508;49.150;11.030;2022-07-29T06:17:46;20.40;64.60
10911;DHT22;5508;49.150;11.030;2022-07-29T06:20:46;20.60;64.80
10911;DHT22;5508;49.150;11.030;2022-07-29T06:23:47;20.50;64.50
10911;DHT22;5508;49.150;11.030;2022-07-29T06:26:49;20.70;63.30
10911;DHT22;5508;49.150;11.030;2022-07-29T06:29:49;20.70;64.70
10911;DHT22;5508;49.150;11.030;2022-07-29T06:32:50;20.90;63.10
10911;DHT22;5508;49.150;11.030;2022-07-29T06:35:50;20.90;63.10
10911;DHT22;5508;49.150;11.030;2022-07-29T06:38:51;21.30;61.70
10911;DHT22;5508;49.150;11.030;2022-07-29T06:41:51;21.20;61.50
10911;DHT22;5508;49.150;11.030;2022-07-29T06:44:52;21.60;60.60
10911;DHT22;5508;49.150;11.030;2022-07-29T06:47:53;21.90;59.00
10911;DHT22;5508;49.150;11.030;2022-07-29T06:50:53;22.00;59.60
10911;DHT22;5508;49.150;11.030;2022-07-29T06:53:54;22.50;57.40
10911;DHT22;5508;49.150;11.030;2022-07-29T06:56:54;22.90;56.50
10911;DHT22;5508;49.150;11.030;2022-07-29T06:59:59;22.90;56.80
10911;DHT22;5508;49.150;11.030;2022-07-29T07:02:59;22.80;56.10
10911;DHT22;5508;49.150;11.030;2022-07-29T07:09:01;24.00;52.80
10911;DHT22;5508;49.150;11.030;2022-07-29T07:12:01;24.20;52.60
10911;DHT22;5508;49.150;11.030;2022-07-29T07:15:02;24.20;51.90
10911;DHT22;5508;49.150;11.030;2022-07-29T07:18:04;24.10;51.50
10911;DHT22;5508;49.150;11.030;2022-07-29T07:21:06;24.40;50.10
10911;DHT22;5508;49.150;11.030;2022-07-29T07:24:06;24.70;48.10
10911;DHT22;5508;49.150;11.030;2022-07-29T07:27:07;25.10;48.30
10911;DHT22;5508;49.150;11.030;2022-07-29T07:30:08;24.90;47.10
10911;DHT22;5508;49.150;11.030;2022-07-29T07:33:08;24.70;48.20
10911;DHT22;5508;49.150;11.030;2022-07-29T07:36:09;25.20;46.70
10911;DHT22;5508;49.150;11.030;2022-07-29T07:39:10;25.50;46.40
10911;DHT22;5508;49.150;11.030;2022-07-29T07:42:10;25.10;47.30
10911;DHT22;5508;49.150;11.030;2022-07-29T07:45:13;25.10;47.80
10911;DHT22;5508;49.150;11.030;2022-07-29T07:48:13;25.50;44.80
10911;DHT22;5508;49.150;11.030;2022-07-29T07:51:14;25.50;44.70
10911;DHT22;5508;49.150;11.030;2022-07-29T07:54:14;25.70;44.00
10911;DHT22;5508;49.150;11.030;2022-07-29T08:00:17;25.30;44.50
10911;DHT22;5508;49.150;11.030;2022-07-29T08:03:18;25.40;45.80
10911;DHT22;5508;49.150;11.030;2022-07-29T08:06:18;25.60;45.10
10911;DHT22;5508;49.150;11.030;2022-07-29T08:09:22;25.80;44.40
10911;DHT22;5508;49.150;11.030;2022-07-29T08:12:23;25.50;44.90
10911;DHT22;5508;49.150;11.030;2022-07-29T08:15:24;25.50;45.60
10911;DHT22;5508;49.150;11.030;2022-07-29T08:18:25;25.80;44.10
10911;DHT22;5508;49.150;11.030;2022-07-29T08:21:26;26.00;44.30
10911;DHT22;5508;49.150;11.030;2022-07-29T08:24:26;25.60;44.50
10911;DHT22;5508;49.150;11.030;2022-07-29T08:27:48;25.80;44.40
10911;DHT22;5508;49.150;11.030;2022-07-29T08:30:49;25.80;43.70
10911;DHT22;5508;49.150;11.030;2022-07-29T08:33:50;25.80;44.50
10911;DHT22;5508;49.150;11.030;2022-07-29T08:36:50;25.90;43.50
10911;DHT22;5508;49.150;11.030;2022-07-29T08:39:51;25.50;43.90
10911;DHT22;5508;49.150;11.030;2022-07-29T08:42:52;25.40;45.20
10911;DHT22;5508;49.150;11.030;2022-07-29T08:45:53;25.10;45.90
10911;DHT22;5508;49.150;11.030;2022-07-29T08:48:55;25.00;45.40
10911;DHT22;5508;49.150;11.030;2022-07-29T08:51:57;24.90;46.40
10911;DHT22;5508;49.150;11.030;2022-07-29T08:54:59;24.80;47.10
10911;DHT22;5508;49.150;11.030;2022-07-29T08:58:00;25.10;46.60
10911;DHT22;5508;49.150;11.030;2022-07-29T09:01:02;25.20;45.40
10911;DHT22;5508;49.150;11.030;2022-07-29T09:04:05;25.50;44.40
10911;DHT22;5508;49.150;11.030;2022-07-29T09:07:06;25.60;43.70
10911;DHT22;5508;49.150;11.030;2022-07-29T09:10:08;25.50;44.80
10911;DHT22;5508;49.150;11.030;2022-07-29T09:13:09;25.30;45.00
10911;DHT22;5508;49.150;11.030;2022-07-29T09:16:09;25.40;45.30
10911;DHT22;5508;49.150;11.030;2022-07-29T09:19:30;25.50;44.90
10911;DHT22;5508;49.150;11.030;2022-07-29T09:22:31;26.00;43.80
10911;DHT22;5508;49.150;11.030;2022-07-29T09:25:38;26.40;43.70
10911;DHT22;5508;49.150;11.030;2022-07-29T09:28:42;26.40;44.00
10911;DHT22;5508;49.150;11.030;2022-07-29T09:31:44;26.50;42.90
10911;DHT22;5508;49.150;11.030;2022-07-29T09:34:45;26.30;43.50
10911;DHT22;5508;49.150;11.030;2022-07-29T09:37:46;26.40;43.90
10911;DHT22;5508;49.150;11.030;2022-07-29T09:40:56;26.90;41.40
10911;DHT22;5508;49.150;11.030;2022-07-29T09:47:00;28.40;38.40
10911;DHT22;5508;49.150;11.030;2022-07-29T09:50:08;29.00;37.00
10911;DHT22;5508;49.150;11.030;2022-07-29T09:53:08;29.30;38.00
10911;DHT22;5508;49.150;11.030;2022-07-29T09:56:09;29.10;35.40
10911;DHT22;5508;49.150;11.030;2022-07-29T09:59:10;29.00;36.60
10911;DHT22;5508;49.150;11.030;2022-07-29T10:02:12;28.70;34.60
10911;DHT22;5508;49.150;11.030;2022-07-29T10:05:22;28.10;35.70
10911;DHT22;5508;49.150;11.030;2022-07-29T10:08:26;27.80;36.50
10911;DHT22;5508;49.150;11.030;2022-07-29T10:11:27;28.00;36.90
10911;DHT22;5508;49.150;11.030;2022-07-29T10:14:27;28.70;34.80
10911;DHT22;5508;49.150;11.030;2022-07-29T10:17:28;28.90;35.70
10911;DHT22;5508;49.150;11.030;2022-07-29T10:20:29;28.60;36.10
10911;DHT22;5508;49.150;11.030;2022-07-29T10:23:31;28.40;36.10
10911;DHT22;5508;49.150;11.030;2022-07-29T10:26:31;28.30;36.20
10911;DHT22;5508;49.150;11.030;2022-07-29T10:29:32;28.40;37.00
10911;DHT22;5508;49.150;11.030;2022-07-29T10:36:07;28.60;35.40
10911;DHT22;5508;49.150;11.030;2022-07-29T10:42:21;28.70;36.30
10911;DHT22;5508;49.150;11.030;2022-07-29T10:48:25;29.60;34.50
10911;DHT22;5508;49.150;11.030;2022-07-29T10:54:53;29.70;33.60
10911;DHT22;5508;49.150;11.030;2022-07-29T10:58:13;29.90;33.70
10911;DHT22;5508;49.150;11.030;2022-07-29T11:01:30;29.70;33.50
10911;DHT22;5508;49.150;11.030;2022-07-29T11:11:33;29.50;33.60
10911;DHT22;5508;49.150;11.030;2022-07-29T11:20:58;29.10;34.30
10911;DHT22;5508;49.150;11.030;2022-07-29T11:24:14;29.20;35.10
10911;DHT22;5508;49.150;11.030;2022-07-29T11:27:19;29.90;32.90
10911;DHT22;5508;49.150;11.030;2022-07-29T11:30:49;29.80;33.40
10911;DHT22;5508;49.150;11.030;2022-07-29T11:33:50;29.70;34.50
10911;DHT22;5508;49.150;11.030;2022-07-29T11:40:08;29.30;34.10
10911;DHT22;5508;49.150;11.030;2022-07-29T11:43:09;29.50;32.90
10911;DHT22;5508;49.150;11.030;2022-07-29T11:46:09;29.30;32.90
10911;DHT22;5508;49.150;11.030;2022-07-29T11:49:11;28.90;33.80
10911;DHT22;5508;49.150;11.030;2022-07-29T11:52:12;28.70;34.50
10911;DHT22;5508;49.150;11.030;2022-07-29T11:55:18;28.70;34.50
10911;DHT22;5508;49.150;11.030;2022-07-29T11:58:22;28.60;34.50
10911;DHT22;5508;49.150;11.030;2022-07-29T12:01:23;28.30;35.80
10911;DHT22;5508;49.150;11.030;2022-07-29T12:04:25;27.70;41.40
10911;DHT22;5508;49.150;11.030;2022-07-29T12:07:28;27.00;50.00
10911;DHT22;5508;49.150;11.030;2022-07-29T12:10:30;26.10;50.20
10911;DHT22;5508;49.150;11.030;2022-07-29T12:13:38;25.80;51.50
10911;DHT22;5508;49.150;11.030;2022-07-29T12:16:39;25.60;49.10
10911;DHT22;5508;49.150;11.030;2022-07-29T12:19:43;25.70;52.70
10911;DHT22;5508;49.150;11.030;2022-07-29T12:22:43;25.10;59.20
10911;DHT22;5508;49.150;11.030;2022-07-29T12:25:44;24.80;62.30
10911;DHT22;5508;49.150;11.030;2022-07-29T12:28:45;24.60;60.40
10911;DHT22;5508;49.150;11.030;2022-07-29T12:31:46;24.40;63.00
10911;DHT22;5508;49.150;11.030;2022-07-29T12:34:46;24.30;64.50
10911;DHT22;5508;49.150;11.030;2022-07-29T12:37:48;24.20;63.90
10911;DHT22;5508;49.150;11.030;2022-07-29T12:40:52;24.40;64.20
10911;DHT22;5508;49.150;11.030;2022-07-29T12:43:53;24.40;63.00
10911;DHT22;5508;49.150;11.030;2022-07-29T12:47:02;24.20;65.10
10911;DHT22;5508;49.150;11.030;2022-07-29T12:50:14;24.20;67.80
10911;DHT22;5508;49.150;11.030;2022-07-29T12:53:17;24.20;66.80
10911;DHT22;5508;49.150;11.030;2022-07-29T12:56:18;24.30;66.60
10911;DHT22;5508;49.150;11.030;2022-07-29T12:59:21;24.30;62.80
10911;DHT22;5508;49.150;11.030;2022-07-29T13:02:22;24.10;57.80
10911;DHT22;5508;49.150;11.030;2022-07-29T13:05:23;23.70;59.90
10911;DHT22;5508;49.150;11.030;2022-07-29T13:08:24;23.50;62.00
10911;DHT22;5508;49.150;11.030;2022-07-29T13:11:29;23.40;60.20
10911;DHT22;5508;49.150;11.030;2022-07-29T13:14:38;23.30;61.80
10911;DHT22;5508;49.150;11.030;2022-07-29T13:17:41;23.20;62.30
10911;DHT22;5508;49.150;11.030;2022-07-29T13:20:42;23.20;58.90
10911;DHT22;5508;49.150;11.030;2022-07-29T13:23:43;23.30;55.30
10911;DHT22;5508;49.150;11.030;2022-07-29T13:26:43;23.10;56.80
10911;DHT22;5508;49.150;11.030;2022-07-29T13:29:44;23.10;57.40
10911;DHT22;5508;49.150;11.030;2022-07-29T13:32:45;23.40;55.50
10911;DHT22;5508;49.150;11.030;2022-07-29T13:35:46;23.50;54.50
10911;DHT22;5508;49.150;11.030;2022-07-29T13:38:48;23.60;53.90
10911;DHT22;5508;49.150;11.030;2022-07-29T13:41:48;23.60;53.50
10911;DHT22;5508;49.150;11.030;2022-07-29T13:44:49;24.00;53.80
10911;DHT22;5508;49.150;11.030;2022-07-29T13:47:51;24.40;50.90
10911;DHT22;5508;49.150;11.030;2022-07-29T13:50:52;24.80;51.20
10911;DHT22;5508;49.150;11.030;2022-07-29T13:53:52;24.90;51.30
10911;DHT22;5508;49.150;11.030;2022-07-29T13:56:53;24.90;50.50
10911;DHT22;5508;49.150;11.030;2022-07-29T13:59:54;25.10;49.60
10911;DHT22;5508;49.150;11.030;2022-07-29T14:02:55;25.40;48.10
10911;DHT22;5508;49.150;11.030;2022-07-29T14:05:55;25.40;47.30
10911;DHT22;5508;49.150;11.030;2022-07-29T14:08:56;25.50;48.30
10911;DHT22;5508;49.150;11.030;2022-07-29T14:11:57;25.70;47.80
10911;DHT22;5508;49.150;11.030;2022-07-29T14:14:57;26.10;45.90
10911;DHT22;5508;49.150;11.030;2022-07-29T14:17:58;26.60;44.60
10911;DHT22;5508;49.150;11.030;2022-07-29T14:20:58;26.90;46.20
10911;DHT22;5508;49.150;11.030;2022-07-29T14:23:59;27.20;45.00
10911;DHT22;5508;49.150;11.030;2022-07-29T14:27:00;26.70;46.40
10911;DHT22;5508;49.150;11.030;2022-07-29T14:30:00;26.50;47.60
10911;DHT22;5508;49.150;11.030;2022-07-29T14:33:01;26.70;48.00
10911;DHT22;5508;49.150;11.030;2022-07-29T14:36:02;26.60;46.40
10911;DHT22;5508;49.150;11.030;2022-07-29T14:39:03;26.40;45.30
10911;DHT22;5508;49.150;11.030;2022-07-29T14:42:07;26.60;46.20
10911;DHT22;5508;49.150;11.030;2022-07-29T14:45:09;26.50;45.80
10911;DHT22;5508;49.150;11.030;2022-07-29T14:48:09;26.60;44.10
10911;DHT22;5508;49.150;11.030;2022-07-29T14:51:11;26.70;43.00
10911;DHT22;5508;49.150;11.030;2022-07-29T14:54:12;26.70;42.90
10911;DHT22;5508;49.150;11.030;2022-07-29T14:57:12;27.00;42.90
10911;DHT22;5508;49.150;11.030;2022-07-29T15:00:13;27.40;41.10
10911;DHT22;5508;49.150;11.030;2022-07-29T15:03:14;27.70;40.20
10911;DHT22;5508;49.150;11.030;2022-07-29T15:06:14;27.70;39.80
10911;DHT22;5508;49.150;11.030;2022-07-29T15:09:15;27.50;41.10
10911;DHT22;5508;49.150;11.030;2022-07-29T15:12:16;27.50;41.10
10911;DHT22;5508;49.150;11.030;2022-07-29T15:15:16;27.30;43.20
10911;DHT22;5508;49.150;11.030;2022-07-29T15:18:17;27.40;43.00
10911;DHT22;5508;49.150;11.030;2022-07-29T15:21:18;27.20;43.10
10911;DHT22;5508;49.150;11.030;2022-07-29T15:24:18;27.20;42.70
10911;DHT22;5508;49.150;11.030;2022-07-29T15:27:19;27.10;42.20
10911;DHT22;5508;49.150;11.030;2022-07-29T15:30:20;27.00;43.20
10911;DHT22;5508;49.150;11.030;2022-07-29T15:33:20;26.90;43.60
10911;DHT22;5508;49.150;11.030;2022-07-29T15:36:21;26.80;43.80
10911;DHT22;5508;49.150;11.030;2022-07-29T15:39:21;26.90;44.60
10911;DHT22;5508;49.150;11.030;2022-07-29T15:42:22;26.70;44.40
10911;DHT22;5508;49.150;11.030;2022-07-29T15:45:23;26.50;44.40
10911;DHT22;5508;49.150;11.030;2022-07-29T15:48:23;26.30;45.80
10911;DHT22;5508;49.150;11.030;2022-07-29T15:51:24;26.00;45.50
10911;DHT22;5508;49.150;11.030;2022-07-29T15:54:25;26.00;46.60
10911;DHT22;5508;49.150;11.030;2022-07-29T15:57:25;25.80;46.30
10911;DHT22;5508;49.150;11.030;2022-07-29T16:00:26;25.20;47.00
10911;DHT22;5508;49.150;11.030;2022-07-29T16:03:27;24.60;50.80
10911;DHT22;5508;49.150;11.030;2022-07-29T16:06:27;24.30;50.80
10911;DHT22;5508;49.150;11.030;2022-07-29T16:09:28;23.80;52.30
10911;DHT22;5508;49.150;11.030;2022-07-29T16:12:28;23.40;53.20
10911;DHT22;5508;49.150;11.030;2022-07-29T16:15:29;23.30;53.90
10911;DHT22;5508;49.150;11.030;2022-07-29T16:18:29;23.20;54.20
10911;DHT22;5508;49.150;11.030;2022-07-29T16:21:31;23.00;54.30
10911;DHT22;5508;49.150;11.030;2022-07-29T16:24:32;22.80;54.50
10911;DHT22;5508;49.150;11.030;2022-07-29T16:27:32;22.80;54.70
10911;DHT22;5508;49.150;11.030;2022-07-29T16:30:34;22.80;54.50
10911;DHT22;5508;49.150;11.030;2022-07-29T16:33:34;22.70;55.10
10911;DHT22;5508;49.150;11.030;2022-07-29T16:36:35;22.50;55.10
10911;DHT22;5508;49.150;11.030;2022-07-29T16:39:36;22.30;55.80
10911;DHT22;5508;49.150;11.030;2022-07-29T16:42:36;22.10;56.10
10911;DHT22;5508;49.150;11.030;2022-07-29T16:45:37;21.80;55.70
10911;DHT22;5508;49.150;11.030;2022-07-29T16:48:37;21.70;57.00
10911;DHT22;5508;49.150;11.030;2022-07-29T16:51:38;21.70;57.20
10911;DHT22;5508;49.150;11.030;2022-07-29T16:54:39;21.60;57.30
10911;DHT22;5508;49.150;11.030;2022-07-29T16:57:40;21.50;57.80
10911;DHT22;5508;49.150;11.030;2022-07-29T17:00:42;21.40;58.10
10911;DHT22;5508;49.150;11.030;2022-07-29T17:03:43;21.40;58.60
10911;DHT22;5508;49.150;11.030;2022-07-29T17:07:02;21.30;58.80
10911;DHT22;5508;49.150;11.030;2022-07-29T17:10:03;21.30;59.10
10911;DHT22;5508;49.150;11.030;2022-07-29T17:13:04;21.20;58.90
10911;DHT22;5508;49.150;11.030;2022-07-29T17:16:05;21.10;58.80
10911;DHT22;5508;49.150;11.030;2022-07-29T17:19:05;21.00;58.90
10911;DHT22;5508;49.150;11.030;2022-07-29T17:22:06;21.00;58.80
10911;DHT22;5508;49.150;11.030;2022-07-29T17:25:07;21.00;58.80
10911;DHT22;5508;49.150;11.030;2022-07-29T17:28:07;20.90;59.10
10911;DHT22;5508;49.150;11.030;2022-07-29T17:31:08;21.00;59.20
10911;DHT22;5508;49.150;11.030;2022-07-29T17:34:09;20.90;59.50
10911;DHT22;5508;49.150;11.030;2022-07-29T17:37:10;20.90;60.30
10911;DHT22;5508;49.150;11.030;2022-07-29T17:40:11;21.00;59.70
10911;DHT22;5508;49.150;11.030;2022-07-29T17:43:11;20.90;60.40
10911;DHT22;5508;49.150;11.030;2022-07-29T17:46:12;20.90;60.10
10911;DHT22;5508;49.150;11.030;2022-07-29T17:49:13;20.90;60.00
10911;DHT22;5508;49.150;11.030;2022-07-29T17:52:14;20.80;60.80
10911;DHT22;5508;49.150;11.030;2022-07-29T17:55:17;20.80;61.60
10911;DHT22;5508;49.150;11.030;2022-07-29T17:58:17;20.70;61.80
10911;DHT22;5508;49.150;11.030;2022-07-29T18:01:18;20.70;63.10
10911;DHT22;5508;49.150;11.030;2022-07-29T18:04:20;20.70;64.40
10911;DHT22;5508;49.150;11.030;2022-07-29T18:07:22;20.60;65.40
10911;DHT22;5508;49.150;11.030;2022-07-29T18:10:23;20.50;66.50
10911;DHT22;5508;49.150;11.030;2022-07-29T18:13:24;20.40;67.00
10911;DHT22;5508;49.150;11.030;2022-07-29T18:16:25;20.30;68.20
10911;DHT22;5508;49.150;11.030;2022-07-29T18:19:26;20.20;68.10
10911;DHT22;5508;49.150;11.030;2022-07-29T18:22:27;20.20;68.90
10911;DHT22;5508;49.150;11.030;2022-07-29T18:25:27;20.10;69.30
10911;DHT22;5508;49.150;11.030;2022-07-29T18:28:28;20.00;69.40
10911;DHT22;5508;49.150;11.030;2022-07-29T18:31:29;19.90;70.00
10911;DHT22;5508;49.150;11.030;2022-07-29T18:34:30;19.80;70.10
10911;DHT22;5508;49.150;11.030;2022-07-29T18:37:31;19.80;70.50
10911;DHT22;5508;49.150;11.030;2022-07-29T18:40:33;19.90;70.40
10911;DHT22;5508;49.150;11.030;2022-07-29T18:43:33;19.80;70.50
10911;DHT22;5508;49.150;11.030;2022-07-29T18:46:34;19.80;71.30
10911;DHT22;5508;49.150;11.030;2022-07-29T18:49:35;19.70;73.30
10911;DHT22;5508;49.150;11.030;2022-07-29T18:52:36;19.70;76.10
10911;DHT22;5508;49.150;11.030;2022-07-29T18:55:36;19.70;76.20
10911;DHT22;5508;49.150;11.030;2022-07-29T18:58:37;19.50;75.20
10911;DHT22;5508;49.150;11.030;2022-07-29T19:01:38;19.40;74.90
10911;DHT22;5508;49.150;11.030;2022-07-29T19:04:39;19.30;75.10
10911;DHT22;5508;49.150;11.030;2022-07-29T19:07:40;19.20;75.30
10911;DHT22;5508;49.150;11.030;2022-07-29T19:10:41;19.20;74.80
10911;DHT22;5508;49.150;11.030;2022-07-29T19:13:41;19.20;74.40
10911;DHT22;5508;49.150;11.030;2022-07-29T19:16:42;19.20;74.00
10911;DHT22;5508;49.150;11.030;2022-07-29T19:19:42;19.10;74.20
10911;DHT22;5508;49.150;11.030;2022-07-29T19:22:43;19.20;74.10
10911;DHT22;5508;49.150;11.030;2022-07-29T19:25:44;19.10;74.80
10911;DHT22;5508;49.150;11.030;2022-07-29T19:28:48;19.10;74.90
10911;DHT22;5508;49.150;11.030;2022-07-29T19:31:48;19.10;74.50
10911;DHT22;5508;49.150;11.030;2022-07-29T19:34:49;19.00;75.90
10911;DHT22;5508;49.150;11.030;2022-07-29T19:38:08;19.00;75.20
10911;DHT22;5508;49.150;11.030;2022-07-29T19:41:09;18.90;77.50
10911;DHT22;5508;49.150;11.030;2022-07-29T19:44:10;18.90;78.70
10911;DHT22;5508;49.150;11.030;2022-07-29T19:47:11;18.90;80.50
10911;DHT22;5508;49.150;11.030;2022-07-29T19:50:11;18.80;81.70
10911;DHT22;5508;49.150;11.030;2022-07-29T19:53:12;18.70;83.90
10911;DHT22;5508;49.150;11.030;2022-07-29T19:56:12;18.70;83.20